Terminal Aerodrome Forecast
Issued by NWS Wilmington, OH

Home | Current Version | Previous Version | Text Only | Print | Product List | Glossary On
Versions: 1 2 3 4 5 6 7 8 9 10 11 12 13 14 15 16 17 18 19 20 21 22 23 24
000
FTUS41 KILN 271400 AAB
TAFCMH
TAF AMD
KCMH 271427Z 2714/2812 32012KT P6SM OVC015
      TEMPO 2714/2716 4SM -SHSN BR
     FM271600 31012KT P6SM OVC025
     FM271800 30012G18KT P6SM BKN035
     FM280100 29008KT P6SM BKN025=

USA.gov is the U.S. government's official web portal to all federal, state and local government web resources and services.